createdAt,value
2023-01-07T00:00:45.209Z,1.20
2023-01-07T00:03:18.678Z,1.10
2023-01-07T00:05:51.651Z,1.10
2023-01-07T00:08:25.147Z,1.10
2023-01-07T00:10:57.932Z,1.30
2023-01-07T00:13:30.968Z,1.30
2023-01-07T00:16:09.650Z,1.30
2023-01-07T00:18:43.404Z,1.20
2023-01-07T00:21:18.106Z,1.30
2023-01-07T00:23:51.573Z,1.30
2023-01-07T00:26:25.537Z,1.40
2023-01-07T00:28:58.835Z,1.50
2023-01-07T00:31:34.316Z,1.40
2023-01-07T00:34:08.664Z,1.23
2023-01-07T00:36:43.642Z,1.50
2023-01-07T00:39:21.405Z,1.50
2023-01-07T00:42:12.096Z,1.50
2023-01-07T00:44:44.967Z,1.50
2023-01-07T00:47:18.007Z,1.60
2023-01-07T00:49:50.891Z,1.57
2023-01-07T00:52:24.985Z,1.60
2023-01-07T00:54:58.722Z,1.60
2023-01-07T00:57:31.880Z,1.60
2023-01-07T01:00:04.802Z,1.60
2023-01-07T01:02:37.774Z,1.50
2023-01-07T01:05:11.778Z,1.50
2023-01-07T01:07:45.010Z,1.70
2023-01-07T01:10:20.178Z,1.73
2023-01-07T01:12:53.162Z,1.80
2023-01-07T01:15:26.264Z,1.70
2023-01-07T01:17:59.121Z,1.60
2023-01-07T01:20:32.004Z,1.60
2023-01-07T01:23:05.136Z,1.50
2023-01-07T01:25:37.820Z,1.70
2023-01-07T01:28:11.050Z,1.60
2023-01-07T01:30:43.653Z,1.70
2023-01-07T01:33:16.441Z,1.50
2023-01-07T01:35:49.288Z,1.60
2023-01-07T01:38:22.226Z,1.60
2023-01-07T01:40:55.067Z,1.60
2023-01-07T01:43:42.072Z,1.60
2023-01-07T01:46:25.858Z,1.70
2023-01-07T01:49:09.852Z,1.60
2023-01-07T01:51:44.360Z,1.80
2023-01-07T01:54:19.095Z,1.80
2023-01-07T01:56:54.457Z,1.70
2023-01-07T01:59:29.309Z,1.60
2023-01-07T02:02:02.207Z,1.70
2023-01-07T02:04:37.242Z,1.60
2023-01-07T02:07:14.789Z,1.60
2023-01-07T02:09:47.650Z,1.80
2023-01-07T02:12:40.674Z,1.80
2023-01-07T02:15:15.912Z,1.90
2023-01-07T02:18:13.030Z,1.93
2023-01-07T02:21:13.359Z,2.20
2023-01-07T02:23:51.599Z,2.20
2023-01-07T02:26:46.084Z,2.40
2023-01-07T02:29:55.307Z,2.50
2023-01-07T02:32:42.263Z,2.30
2023-01-07T02:35:38.351Z,2.30
2023-01-07T02:38:39.401Z,2.40
2023-01-07T02:41:39.941Z,2.40
2023-01-07T02:44:17.755Z,2.40
2023-01-07T02:47:08.948Z,2.60
2023-01-07T02:49:41.877Z,2.40
2023-01-07T02:52:31.478Z,2.30
2023-01-07T02:55:22.107Z,2.50
2023-01-07T02:58:12.147Z,2.40
2023-01-07T03:01:06.106Z,2.50
2023-01-07T03:04:01.903Z,2.70
2023-01-07T03:06:37.271Z,2.60
2023-01-07T03:09:36.433Z,2.60
2023-01-07T03:12:28.094Z,2.60
2023-01-07T03:15:02.920Z,2.50
2023-01-07T03:17:40.568Z,2.70
2023-01-07T03:20:15.703Z,2.60
2023-01-07T03:22:50.135Z,2.47
2023-01-07T03:25:25.124Z,2.70
2023-01-07T03:27:59.956Z,2.80
2023-01-07T03:30:33.334Z,2.70
2023-01-07T03:33:23.523Z,2.50
2023-01-07T03:35:57.877Z,2.60
2023-01-07T03:38:31.769Z,2.60
2023-01-07T03:41:04.868Z,2.30
2023-01-07T03:43:37.690Z,2.40
2023-01-07T03:46:10.563Z,2.40
2023-01-07T03:48:43.543Z,2.60
2023-01-07T03:51:16.488Z,2.30
2023-01-07T03:53:49.535Z,2.50
2023-01-07T03:56:22.878Z,2.30
2023-01-07T03:58:55.815Z,2.40
2023-01-07T04:01:29.502Z,2.40
2023-01-07T04:04:03.569Z,2.30
2023-01-07T04:06:37.062Z,2.50
2023-01-07T04:09:10.025Z,2.40
2023-01-07T04:11:42.947Z,2.20
2023-01-07T04:14:15.855Z,2.20
2023-01-07T04:16:51.556Z,2.30
2023-01-07T04:19:23.005Z,1.20
2023-01-07T04:22:05.126Z,0.90
2023-01-07T04:25:28.903Z,0.80
2023-01-07T04:27:55.595Z,1.00
2023-01-07T04:30:28.535Z,1.00
2023-01-07T04:33:03.604Z,1.00
2023-01-07T04:35:36.844Z,1.00
2023-01-07T04:38:09.802Z,1.10
2023-01-07T04:40:55.807Z,1.00
2023-01-07T04:43:28.777Z,1.00
2023-01-07T04:46:01.666Z,1.00
2023-01-07T04:48:34.532Z,1.07
2023-01-07T04:51:07.554Z,1.00
2023-01-07T04:53:40.416Z,1.00
2023-01-07T04:56:13.511Z,1.10
2023-01-07T04:58:46.853Z,1.10
2023-01-07T05:01:19.892Z,1.00
2023-01-07T05:03:53.094Z,1.00
2023-01-07T05:06:25.929Z,1.00
2023-01-07T05:08:58.720Z,0.93
2023-01-07T05:11:33.103Z,1.00
2023-01-07T05:14:06.224Z,0.90
2023-01-07T05:16:39.619Z,1.00
2023-01-07T05:19:13.356Z,0.90
2023-01-07T05:21:45.883Z,0.93
2023-01-07T05:24:18.736Z,1.00
2023-01-07T05:26:51.433Z,0.90
2023-01-07T05:29:24.535Z,0.90
2023-01-07T05:31:57.594Z,0.90
2023-01-07T05:34:30.594Z,1.00
2023-01-07T05:37:03.414Z,0.90
2023-01-07T05:39:36.579Z,0.90
2023-01-07T05:42:09.705Z,0.90
2023-01-07T05:44:44.280Z,1.00
2023-01-07T05:47:17.350Z,1.00
2023-01-07T05:49:50.361Z,1.00
2023-01-07T05:52:23.438Z,1.00
2023-01-07T05:54:56.449Z,1.00
2023-01-07T05:57:29.090Z,1.10
2023-01-07T06:00:02.738Z,1.10
2023-01-07T06:02:35.518Z,1.10
2023-01-07T06:05:09.016Z,1.00
2023-01-07T06:07:44.843Z,1.00
2023-01-07T06:10:17.881Z,1.00
2023-01-07T06:12:50.714Z,1.10
2023-01-07T06:15:23.800Z,1.20
2023-01-07T06:17:56.942Z,1.10
2023-01-07T06:20:31.076Z,1.10
2023-01-07T06:23:05.640Z,1.10
2023-01-07T06:25:38.512Z,1.10
2023-01-07T06:28:11.423Z,1.20
2023-01-07T06:30:44.296Z,1.20
2023-01-07T06:33:17.209Z,1.20
2023-01-07T06:35:50.656Z,1.20
2023-01-07T06:38:27.672Z,1.20
2023-01-07T06:41:04.275Z,1.20
2023-01-07T06:43:37.096Z,1.20
2023-01-07T06:46:10.525Z,1.20
2023-01-07T06:48:43.388Z,1.20
2023-01-07T06:51:16.250Z,1.20
2023-01-07T06:53:49.307Z,1.20
2023-01-07T06:56:22.030Z,1.10
2023-01-07T06:58:55.483Z,1.20
2023-01-07T07:01:28.394Z,1.20
2023-01-07T07:04:01.264Z,1.20
2023-01-07T07:06:34.213Z,1.20
2023-01-07T07:09:07.206Z,1.20
2023-01-07T07:11:40.180Z,1.10
2023-01-07T07:14:13.354Z,1.20
2023-01-07T07:16:46.082Z,1.20
2023-01-07T07:19:19.352Z,1.20
2023-01-07T07:21:52.251Z,1.10
2023-01-07T07:24:24.987Z,1.30
2023-01-07T07:26:58.126Z,1.20
2023-01-07T07:29:31.006Z,1.17
2023-01-07T07:32:03.706Z,1.20
2023-01-07T07:34:37.105Z,1.30
2023-01-07T07:37:09.920Z,1.20
2023-01-07T07:39:42.963Z,1.20
2023-01-07T07:42:15.829Z,1.10
2023-01-07T07:44:48.827Z,1.10
2023-01-07T07:47:22.146Z,1.10
2023-01-07T07:49:55.106Z,1.10
2023-01-07T07:52:28.185Z,1.20
2023-01-07T07:55:20.306Z,1.20
2023-01-07T07:57:34.726Z,1.20
2023-01-07T08:00:08.107Z,1.20
2023-01-07T08:02:40.985Z,1.10
2023-01-07T08:05:14.666Z,1.10
2023-01-07T08:07:47.813Z,1.10
2023-01-07T08:10:20.740Z,1.03
2023-01-07T08:12:53.507Z,1.30
2023-01-07T08:15:26.457Z,1.10
2023-01-07T08:18:03.772Z,1.10
2023-01-07T08:20:37.668Z,1.10
2023-01-07T08:23:11.463Z,1.10
2023-01-07T08:25:44.481Z,1.10
2023-01-07T08:28:17.268Z,1.10
2023-01-07T08:30:50.120Z,1.10
2023-01-07T08:33:23.172Z,1.10
2023-01-07T08:35:56.093Z,1.20
2023-01-07T08:38:30.337Z,1.10
2023-01-07T08:41:03.582Z,1.27
2023-01-07T08:43:37.286Z,1.13
2023-01-07T08:46:10.237Z,1.30
2023-01-07T08:48:43.235Z,1.20
2023-01-07T08:51:16.384Z,1.17
2023-01-07T08:53:49.657Z,1.20
2023-01-07T08:56:22.876Z,1.20
2023-01-07T08:58:55.852Z,1.20
2023-01-07T09:01:28.962Z,1.40
2023-01-07T09:04:02.070Z,1.10
2023-01-07T09:06:35.004Z,1.03
2023-01-07T09:09:08.149Z,1.10
2023-01-07T09:11:41.130Z,1.10
2023-01-07T09:14:15.096Z,1.23
2023-01-07T09:16:48.301Z,1.17
2023-01-07T09:19:21.570Z,1.10
2023-01-07T09:21:54.373Z,1.20
2023-01-07T09:24:27.376Z,1.10
2023-01-07T09:27:00.383Z,1.10
2023-01-07T09:29:33.289Z,1.20
2023-01-07T09:32:06.310Z,1.20
2023-01-07T09:34:40.224Z,1.20
2023-01-07T09:37:13.101Z,1.20
2023-01-07T09:39:46.444Z,1.20
2023-01-07T09:42:21.611Z,1.30
2023-01-07T09:45:05.779Z,1.27
2023-01-07T09:47:40.101Z,1.23
2023-01-07T09:50:27.322Z,1.30
2023-01-07T09:53:02.043Z,1.30
2023-01-07T09:55:37.077Z,1.30
2023-01-07T09:58:11.771Z,1.40
2023-01-07T10:00:46.425Z,1.30
2023-01-07T10:03:30.248Z,1.20
2023-01-07T10:06:07.684Z,1.30
2023-01-07T10:08:46.208Z,1.30
2023-01-07T10:11:27.263Z,1.30
2023-01-07T10:14:07.994Z,1.30
2023-01-07T10:17:01.059Z,1.40
2023-01-07T10:19:51.619Z,1.40
2023-01-07T10:22:28.833Z,1.50
2023-01-07T10:25:06.370Z,1.50
2023-01-07T10:27:41.142Z,1.50
2023-01-07T10:30:16.141Z,1.50
2023-01-07T10:32:49.878Z,1.40
2023-01-07T10:35:23.913Z,1.50
2023-01-07T10:37:58.311Z,1.50
2023-01-07T10:40:48.404Z,1.50
2023-01-07T10:43:25.874Z,1.47
2023-01-07T10:46:03.243Z,1.50
2023-01-07T10:48:44.165Z,1.60
2023-01-07T10:51:23.595Z,1.57
2023-01-07T10:54:13.655Z,1.50
2023-01-07T10:56:54.030Z,1.50
2023-01-07T10:59:28.144Z,1.50
2023-01-07T11:02:02.689Z,1.60
2023-01-07T11:04:36.449Z,1.47
2023-01-07T11:07:14.649Z,1.50
2023-01-07T11:09:49.405Z,1.50
2023-01-07T11:12:30.245Z,1.50
2023-01-07T11:15:05.359Z,1.50
2023-01-07T11:17:43.138Z,1.50
2023-01-07T11:20:15.927Z,1.60
2023-01-07T11:22:48.784Z,1.60
2023-01-07T11:25:26.641Z,1.50
2023-01-07T11:28:04.110Z,1.60
2023-01-07T11:30:37.644Z,1.60
2023-01-07T11:33:11.125Z,1.60
2023-01-07T11:35:45.992Z,1.60
2023-01-07T11:38:36.124Z,1.60
2023-01-07T11:41:10.805Z,1.50
2023-01-07T11:43:48.167Z,1.60
2023-01-07T11:46:23.972Z,1.70
2023-01-07T11:49:01.752Z,1.70
2023-01-07T11:51:36.247Z,1.70
2023-01-07T11:54:09.448Z,1.80
2023-01-07T11:56:42.392Z,1.60
2023-01-07T11:59:20.059Z,1.70
2023-01-07T12:01:57.709Z,1.70
2023-01-07T12:04:35.437Z,1.60
2023-01-07T12:07:10.467Z,1.60
2023-01-07T12:09:45.132Z,1.60
2023-01-07T12:12:35.505Z,1.70
2023-01-07T12:15:10.821Z,1.80
2023-01-07T12:17:45.165Z,1.80
2023-01-07T12:20:42.509Z,1.80
2023-01-07T12:23:32.271Z,1.80
2023-01-07T12:26:07.463Z,1.90
2023-01-07T12:29:05.139Z,1.90
2023-01-07T12:31:42.919Z,2.07
2023-01-07T12:34:51.233Z,2.00
2023-01-07T12:37:41.159Z,1.90
2023-01-07T12:40:22.003Z,1.90
2023-01-07T12:43:02.830Z,2.00
2023-01-07T12:45:40.172Z,2.00
2023-01-07T12:48:15.293Z,1.93
2023-01-07T12:50:49.869Z,2.00
2023-01-07T12:53:40.430Z,1.90
2023-01-07T12:56:18.901Z,1.93
2023-01-07T12:59:02.680Z,2.00
2023-01-07T13:01:53.019Z,2.10
2023-01-07T13:04:44.175Z,1.80
2023-01-07T13:07:22.234Z,1.90
2023-01-07T13:10:05.974Z,1.83
2023-01-07T13:12:46.466Z,1.90
2023-01-07T13:15:25.616Z,1.93
2023-01-07T13:18:02.505Z,2.00
2023-01-07T13:20:56.304Z,2.07
2023-01-07T13:23:59.823Z,2.07
2023-01-07T13:26:55.713Z,2.10
2023-01-07T13:29:50.195Z,2.03
2023-01-07T13:32:58.237Z,2.00
2023-01-07T13:35:53.874Z,2.07
2023-01-07T13:38:34.458Z,2.10
2023-01-07T13:41:27.905Z,2.10
2023-01-07T13:44:11.565Z,2.20
2023-01-07T13:46:50.471Z,2.30
2023-01-07T13:49:34.240Z,2.20
2023-01-07T13:52:21.581Z,2.20
2023-01-07T13:54:56.404Z,2.20
2023-01-07T13:57:37.443Z,2.20
2023-01-07T14:00:12.473Z,2.17
2023-01-07T14:03:03.989Z,2.10
2023-01-07T14:05:37.593Z,2.10
2023-01-07T14:08:10.536Z,2.00
2023-01-07T14:10:43.935Z,2.03
2023-01-07T14:13:36.409Z,2.00
2023-01-07T14:16:14.252Z,2.20
2023-01-07T14:19:08.640Z,2.03
2023-01-07T14:22:06.079Z,2.10
2023-01-07T14:24:56.101Z,2.20
2023-01-07T14:27:53.326Z,2.10
2023-01-07T14:30:28.571Z,2.13
2023-01-07T14:33:06.206Z,2.17
2023-01-07T14:35:43.931Z,2.30
2023-01-07T14:38:37.178Z,2.30
2023-01-07T14:41:15.537Z,2.10
2023-01-07T14:43:50.168Z,2.20
2023-01-07T14:46:34.011Z,2.20
2023-01-07T14:49:17.656Z,2.10
2023-01-07T14:52:01.792Z,2.20
2023-01-07T14:55:07.826Z,2.30
2023-01-07T14:58:09.882Z,2.30
2023-01-07T15:00:47.425Z,2.20
2023-01-07T15:03:43.401Z,2.10
2023-01-07T15:06:37.542Z,2.20
2023-01-07T15:09:34.713Z,2.20
2023-01-07T15:12:29.742Z,2.20
2023-01-07T15:15:27.472Z,2.20
2023-01-07T15:18:01.419Z,2.20
2023-01-07T15:20:36.291Z,2.20
2023-01-07T15:23:37.019Z,2.13
2023-01-07T15:26:18.192Z,2.30
2023-01-07T15:29:11.301Z,2.30
2023-01-07T15:32:07.356Z,2.30
2023-01-07T15:34:41.817Z,2.30
2023-01-07T15:37:19.250Z,2.30
2023-01-07T15:39:54.601Z,2.37
2023-01-07T15:42:29.698Z,2.30
2023-01-07T15:45:03.386Z,2.13
2023-01-07T15:47:43.983Z,2.30
2023-01-07T15:50:36.442Z,2.10
2023-01-07T15:53:17.966Z,2.10
2023-01-07T15:55:59.366Z,2.40
2023-01-07T15:58:40.256Z,2.30
2023-01-07T16:01:14.880Z,2.20
2023-01-07T16:03:47.838Z,2.33
2023-01-07T16:06:25.665Z,2.30
2023-01-07T16:08:59.143Z,2.00
2023-01-07T16:11:33.512Z,2.27
2023-01-07T16:14:07.756Z,2.20
2023-01-07T16:16:40.694Z,2.10
2023-01-07T16:19:23.959Z,2.00
2023-01-07T16:22:01.810Z,2.07
2023-01-07T16:24:34.759Z,2.10
2023-01-07T16:27:08.298Z,2.13
2023-01-07T16:29:43.243Z,2.00
2023-01-07T16:32:18.351Z,2.30
2023-01-07T16:34:52.463Z,2.20
2023-01-07T16:37:25.528Z,2.10
2023-01-07T16:39:58.953Z,2.10
2023-01-07T16:42:31.909Z,2.10
2023-01-07T16:45:06.291Z,2.17
2023-01-07T16:47:39.243Z,1.90
2023-01-07T16:50:26.062Z,2.03
2023-01-07T16:53:00.281Z,2.00
2023-01-07T16:55:50.983Z,2.20
2023-01-07T16:58:35.377Z,2.10
2023-01-07T17:01:09.168Z,1.90
2023-01-07T17:03:56.283Z,1.90
2023-01-07T17:06:30.856Z,1.80
2023-01-07T17:09:04.159Z,1.80
2023-01-07T17:11:43.795Z,1.80
2023-01-07T17:14:41.166Z,1.80
2023-01-07T17:17:31.052Z,1.80
2023-01-07T17:20:17.648Z,1.80
2023-01-07T17:22:51.420Z,1.90
2023-01-07T17:25:30.191Z,1.90
2023-01-07T17:28:05.014Z,1.80
2023-01-07T17:30:39.534Z,1.90
2023-01-07T17:33:13.646Z,2.00
2023-01-07T17:35:51.375Z,2.00
2023-01-07T17:38:24.186Z,1.80
2023-01-07T17:40:57.767Z,1.70
2023-01-07T17:43:37.806Z,1.70
2023-01-07T17:46:12.905Z,1.80
2023-01-07T17:48:45.791Z,1.80
2023-01-07T17:51:18.803Z,1.60
2023-01-07T17:53:53.392Z,1.90
2023-01-07T17:56:26.297Z,1.70
2023-01-07T17:58:59.071Z,1.60
2023-01-07T18:01:32.664Z,2.27
2023-01-07T18:04:05.588Z,1.80
2023-01-07T18:06:39.554Z,1.70
2023-01-07T18:09:13.187Z,1.70
2023-01-07T18:12:05.109Z,1.70
2023-01-07T18:14:38.029Z,1.60
2023-01-07T18:17:11.075Z,1.60
2023-01-07T18:19:43.916Z,1.60
2023-01-07T18:22:16.793Z,1.70
2023-01-07T18:24:49.598Z,1.73
2023-01-07T18:27:22.541Z,1.70
2023-01-07T18:29:55.519Z,1.70
2023-01-07T18:32:31.061Z,1.70
2023-01-07T18:35:04.262Z,1.70
2023-01-07T18:37:40.026Z,1.70
2023-01-07T18:40:13.736Z,1.70
2023-01-07T18:42:46.886Z,1.50
2023-01-07T18:45:20.052Z,1.60
2023-01-07T18:47:52.903Z,1.60
2023-01-07T18:50:25.966Z,1.80
2023-01-07T18:52:59.256Z,1.60
2023-01-07T18:55:32.625Z,1.60
2023-01-07T18:58:05.747Z,1.60
2023-01-07T19:00:38.900Z,1.90
2023-01-07T19:03:13.041Z,2.00
2023-01-07T19:05:46.125Z,2.30
2023-01-07T19:08:19.286Z,2.30
2023-01-07T19:10:52.489Z,2.20
2023-01-07T19:13:25.944Z,2.50
2023-01-07T19:15:58.883Z,2.20
2023-01-07T19:18:31.915Z,2.30
2023-01-07T19:21:08.872Z,2.40
2023-01-07T19:23:41.770Z,2.43
2023-01-07T19:26:15.711Z,2.60
2023-01-07T19:28:48.995Z,2.70
2023-01-07T19:31:22.099Z,2.90
2023-01-07T19:33:55.400Z,3.30
2023-01-07T19:36:28.745Z,3.20
2023-01-07T19:39:01.895Z,3.13
2023-01-07T19:41:36.083Z,3.20
2023-01-07T19:44:09.213Z,3.20
2023-01-07T19:46:42.527Z,3.00
2023-01-07T19:49:15.909Z,2.80
2023-01-07T19:51:49.753Z,3.30
2023-01-07T19:54:23.091Z,3.03
2023-01-07T19:56:57.081Z,3.40
2023-01-07T19:59:30.295Z,3.30
2023-01-07T20:02:03.386Z,3.40
2023-01-07T20:04:36.679Z,3.50
2023-01-07T20:07:10.176Z,3.40
2023-01-07T20:09:43.315Z,3.20
2023-01-07T20:12:16.382Z,3.37
2023-01-07T20:14:49.885Z,3.70
2023-01-07T20:17:22.898Z,3.77
2023-01-07T20:19:55.932Z,4.20
2023-01-07T20:22:32.138Z,4.10
2023-01-07T20:25:09.040Z,4.47
2023-01-07T20:27:42.275Z,4.07
2023-01-07T20:30:16.707Z,4.80
2023-01-07T20:32:49.736Z,4.37
2023-01-07T20:35:24.273Z,4.20
2023-01-07T20:37:57.236Z,5.43
2023-01-07T20:40:39.416Z,4.50
2023-01-07T20:43:17.734Z,5.30
2023-01-07T20:45:50.994Z,5.13
2023-01-07T20:48:24.216Z,4.90
2023-01-07T20:50:57.265Z,5.60
2023-01-07T20:53:30.560Z,5.30
2023-01-07T20:56:04.739Z,5.60
2023-01-07T20:58:39.330Z,5.47
2023-01-07T21:01:14.591Z,5.03
2023-01-07T21:03:47.819Z,5.50
2023-01-07T21:06:22.219Z,5.20
2023-01-07T21:08:57.897Z,5.70
2023-01-07T21:11:32.103Z,5.30
2023-01-07T21:14:05.904Z,5.30
2023-01-07T21:16:39.519Z,6.20
2023-01-07T21:19:12.727Z,6.30
2023-01-07T21:21:45.775Z,6.63
2023-01-07T21:24:19.443Z,6.40
2023-01-07T21:26:53.085Z,5.70
2023-01-07T21:29:26.105Z,6.10
2023-01-07T21:31:59.451Z,6.60
2023-01-07T21:34:33.087Z,7.40
2023-01-07T21:37:06.409Z,6.20
2023-01-07T21:39:40.641Z,6.20
2023-01-07T21:42:13.715Z,6.70
2023-01-07T21:44:46.583Z,8.10
2023-01-07T21:47:19.764Z,7.60
2023-01-07T21:49:53.689Z,6.60
2023-01-07T21:52:26.843Z,6.90
2023-01-07T21:54:59.746Z,8.00
2023-01-07T21:57:32.903Z,7.57
2023-01-07T22:00:06.018Z,8.63
2023-01-07T22:02:39.145Z,8.70
2023-01-07T22:05:13.998Z,9.50
2023-01-07T22:07:47.204Z,9.30
2023-01-07T22:10:20.391Z,8.93
2023-01-07T22:12:59.090Z,9.00
2023-01-07T22:15:35.613Z,8.60
2023-01-07T22:18:09.058Z,8.20
2023-01-07T22:20:42.445Z,8.30
2023-01-07T22:23:17.305Z,9.43
2023-01-07T22:25:50.790Z,8.93
2023-01-07T22:28:25.399Z,8.37
2023-01-07T22:31:00.085Z,9.00
2023-01-07T22:33:37.171Z,9.33
2023-01-07T22:36:10.699Z,9.20
2023-01-07T22:38:43.829Z,9.73
2023-01-07T22:41:17.093Z,8.70
2023-01-07T22:43:50.131Z,9.70
2023-01-07T22:46:27.837Z,9.37
2023-01-07T22:49:01.500Z,9.30
2023-01-07T22:51:38.598Z,9.87
2023-01-07T22:54:11.337Z,9.40
2023-01-07T22:56:44.806Z,9.70
2023-01-07T22:59:17.867Z,9.00
2023-01-07T23:01:50.793Z,8.30
2023-01-07T23:04:23.926Z,9.67
2023-01-07T23:06:56.794Z,9.57
2023-01-07T23:09:29.870Z,9.90
2023-01-07T23:12:03.100Z,10.80
2023-01-07T23:14:40.854Z,9.80
2023-01-07T23:17:14.173Z,10.40
2023-01-07T23:19:47.228Z,9.83
2023-01-07T23:22:20.261Z,10.30
2023-01-07T23:24:53.359Z,12.03
2023-01-07T23:27:26.189Z,12.60
2023-01-07T23:30:00.677Z,11.53
2023-01-07T23:32:33.873Z,10.87
2023-01-07T23:35:06.928Z,11.50
2023-01-07T23:37:40.091Z,10.30
2023-01-07T23:40:14.030Z,10.40
2023-01-07T23:42:49.914Z,10.40
2023-01-07T23:45:22.797Z,9.37
2023-01-07T23:47:55.424Z,9.60
2023-01-07T23:50:28.667Z,10.90
2023-01-07T23:53:01.679Z,9.90
2023-01-07T23:55:34.512Z,10.30
2023-01-07T23:58:07.271Z,10.40
